Time;durP1;ratioP1;P1;durP2;ratioP2;P2;SDS_P1;SDS_P2;PMS_P1;PMS_P2;Temp;Humidity;BMP_temperature;BMP_pressure;BME280_temperature;BME280_humidity;BME280_pressure;Samples;Min_cycle;Max_cycle;Signal;HPM_P1;HPM_P2
2022/10/06 00:00:09;;;;;;;2.92;0.30;;;13.80;93.90;;;;;;5008567;28;20038;-79
2022/10/06 00:02:35;;;;;;;3.30;0.40;;;13.70;93.70;;;;;;5007802;28;20077;-80
2022/10/06 00:05:00;;;;;;;1.52;0.50;;;13.80;93.30;;;;;;5004583;28;20033;-80
2022/10/06 00:07:26;;;;;;;0.98;0.38;;;13.70;92.90;;;;;;5004202;28;20045;-81
2022/10/06 00:09:51;;;;;;;1.73;0.50;;;13.80;92.90;;;;;;5003009;28;20038;-81
2022/10/06 00:12:17;;;;;;;0.60;0.32;;;13.70;92.50;;;;;;5007009;28;20033;-82
2022/10/06 00:14:42;;;;;;;0.68;0.40;;;13.80;92.10;;;;;;5002525;28;20038;-81
2022/10/06 00:17:08;;;;;;;0.98;0.50;;;13.80;91.70;;;;;;5007636;28;20065;-82
2022/10/06 00:19:33;;;;;;;1.38;0.22;;;13.80;91.80;;;;;;5008405;28;20053;-81
2022/10/06 00:21:58;;;;;;;0.68;0.20;;;13.80;91.40;;;;;;5008408;28;20034;-81
2022/10/06 00:24:24;;;;;;;2.47;0.60;;;13.80;91.30;;;;;;5007030;28;20041;-82
2022/10/06 00:26:49;;;;;;;1.45;0.50;;;13.80;91.30;;;;;;5006777;28;20080;-80
2022/10/06 00:29:15;;;;;;;0.88;0.40;;;13.90;90.80;;;;;;5004532;28;20140;-80
2022/10/06 00:31:40;;;;;;;2.15;0.38;;;13.90;90.60;;;;;;5008238;28;20133;-81
2022/10/06 00:34:06;;;;;;;1.05;0.40;;;13.80;90.70;;;;;;5012525;28;20433;-80
2022/10/06 00:36:31;;;;;;;0.85;0.35;;;13.80;90.80;;;;;;5006089;28;20072;-81
2022/10/06 00:38:57;;;;;;;0.95;0.40;;;13.80;90.20;;;;;;5004340;28;20394;-81
2022/10/06 00:41:22;;;;;;;0.60;0.40;;;13.80;90.00;;;;;;5001210;28;20149;-80
2022/10/06 00:43:51;;;;;;;2.92;0.30;;;13.80;89.90;;;;;;5013571;28;20451;-80
2022/10/06 00:46:44;;;;;;;1.50;0.45;;;13.80;89.40;;;;;;5009075;28;20041;-81
2022/10/06 00:49:22;;;;;;;3.30;0.40;;;13.80;89.50;;;;;;5004762;28;20080;-80
2022/10/06 00:51:53;;;;;;;1.40;0.40;;;13.80;88.70;;;;;;5007633;28;20446;-81
2022/10/06 00:54:18;;;;;;;1.58;0.30;;;13.90;88.50;;;;;;5007136;28;20029;-81
2022/10/06 00:56:44;;;;;;;2.45;0.50;;;13.80;88.50;;;;;;5000388;28;20594;-81
2022/10/06 00:59:12;;;;;;;0.85;0.30;;;13.70;88.50;;;;;;5005937;28;20033;-82
2022/10/06 01:01:40;;;;;;;0.45;0.30;;;13.80;88.10;;;;;;5008474;28;20056;-82
2022/10/06 01:04:10;;;;;;;4.50;0.50;;;13.70;88.20;;;;;;5013540;28;20045;-81
2022/10/06 01:06:41;;;;;;;1.38;0.50;;;13.70;88.30;;;;;;5006792;28;20037;-82
2022/10/06 01:09:06;;;;;;;2.00;0.40;;;13.70;88.40;;;;;;5002499;28;20034;-82
2022/10/06 01:11:33;;;;;;;1.98;0.50;;;13.60;88.50;;;;;;5001225;28;20118;-81
2022/10/06 01:13:59;;;;;;;2.33;0.50;;;13.60;88.10;;;;;;5009391;28;20128;-81
2022/10/06 01:16:25;;;;;;;0.80;0.47;;;13.60;88.10;;;;;;5007682;28;20538;-81
2022/10/06 01:18:54;;;;;;;4.50;0.55;;;13.50;88.30;;;;;;5011135;28;20467;-81
2022/10/06 01:21:43;;;;;;;1.38;0.40;;;13.50;88.40;;;;;;5007152;28;20042;-81
2022/10/06 01:24:08;;;;;;;2.83;0.55;;;13.40;88.60;;;;;;5001392;28;20049;-82
2022/10/06 01:26:37;;;;;;;3.75;0.45;;;13.30;89.10;;;;;;5000275;28;20474;-82
2022/10/06 01:29:03;;;;;;;4.35;0.50;;;13.30;89.30;;;;;;5006824;28;20053;-82
2022/10/06 01:31:29;;;;;;;5.32;0.70;;;13.20;89.30;;;;;;5007077;28;20135;-82
2022/10/06 01:33:55;;;;;;;3.15;0.75;;;13.10;89.60;;;;;;5012879;28;20033;-81
2022/10/06 01:36:20;;;;;;;2.90;0.63;;;13.10;89.70;;;;;;5012651;28;20048;-82
2022/10/06 01:38:46;;;;;;;4.00;0.63;;;13.10;89.80;;;;;;5003936;28;20425;-81
2022/10/06 01:41:12;;;;;;;2.17;0.50;;;13.10;89.90;;;;;;4996505;28;20041;-82
2022/10/06 01:43:38;;;;;;;3.92;0.57;;;13.00;90.10;;;;;;5004904;28;20044;-81
2022/10/06 01:46:03;;;;;;;3.05;0.63;;;13.00;90.30;;;;;;5011727;28;20142;-80
2022/10/06 01:48:29;;;;;;;3.35;0.73;;;13.00;90.40;;;;;;5005574;28;20434;-80
2022/10/06 01:50:54;;;;;;;1.45;0.60;;;13.00;90.30;;;;;;5004192;28;20030;-80
2022/10/06 01:53:20;;;;;;;4.65;0.65;;;13.00;90.10;;;;;;5007950;28;20073;-81
2022/10/06 01:55:46;;;;;;;3.35;0.80;;;12.90;90.20;;;;;;5003589;28;20038;-81
2022/10/06 01:58:12;;;;;;;3.78;0.73;;;12.80;90.60;;;;;;5005685;28;20057;-81
2022/10/06 02:00:38;;;;;;;4.28;0.77;;;12.80;90.70;;;;;;5011843;28;20189;-80
2022/10/06 02:03:04;;;;;;;2.53;0.80;;;12.70;91.10;;;;;;5006700;28;20327;-81
2022/10/06 02:05:30;;;;;;;4.57;0.60;;;12.70;91.20;;;;;;4998942;28;20536;-81
2022/10/06 02:07:55;;;;;;;1.67;0.70;;;12.60;91.40;;;;;;4995979;28;20422;-81
2022/10/06 02:10:21;;;;;;;2.58;0.70;;;12.60;91.80;;;;;;5013356;28;20045;-80
2022/10/06 02:12:51;;;;;;;3.78;0.60;;;12.60;91.90;;;;;;5003911;28;20327;-80
2022/10/06 02:15:16;;;;;;;2.58;0.93;;;12.70;91.60;;;;;;5009840;28;20026;-81
2022/10/06 02:17:42;;;;;;;2.00;0.70;;;12.60;91.90;;;;;;5006795;28;20118;-81
2022/10/06 02:20:08;;;;;;;1.17;0.50;;;12.60;92.20;;;;;;5020182;28;20449;-81
2022/10/06 02:22:38;;;;;;;2.13;0.52;;;12.50;92.10;;;;;;5017984;28;20044;-81
2022/10/06 02:25:04;;;;;;;2.83;0.60;;;12.50;92.30;;;;;;5016478;28;20130;-80
2022/10/06 02:27:29;;;;;;;2.83;0.70;;;12.50;92.60;;;;;;5007645;28;20041;-80
2022/10/06 02:29:55;;;;;;;2.55;0.57;;;12.50;92.50;;;;;;5012015;28;20030;-79
2022/10/06 02:32:20;;;;;;;2.95;0.95;;;12.50;92.40;;;;;;5009491;28;20113;-81
2022/10/06 02:34:46;;;;;;;3.20;0.90;;;12.50;92.20;;;;;;5005433;28;20041;-80
2022/10/06 02:37:14;;;;;;;5.18;0.88;;;12.60;91.90;;;;;;5007417;28;20496;-80
2022/10/06 02:39:40;;;;;;;4.55;0.90;;;12.60;91.80;;;;;;5006629;28;20137;-80
2022/10/06 02:42:06;;;;;;;2.95;0.80;;;12.60;91.50;;;;;;5007512;28;20105;-81
2022/10/06 02:44:31;;;;;;;3.25;0.80;;;12.70;91.30;;;;;;5007681;28;20565;-79
2022/10/06 02:46:57;;;;;;;3.58;0.70;;;12.70;91.00;;;;;;5010128;28;20046;-80
2022/10/06 02:49:22;;;;;;;5.25;0.88;;;12.80;90.90;;;;;;5026264;28;20361;-80
2022/10/06 02:51:48;;;;;;;4.55;0.77;;;12.80;90.40;;;;;;5008753;28;20068;-81
2022/10/06 02:54:14;;;;;;;3.92;0.85;;;12.90;90.10;;;;;;5010873;28;20037;-80
2022/10/06 02:56:39;;;;;;;3.75;0.82;;;12.80;90.20;;;;;;5007005;28;20046;-79
2022/10/06 02:59:05;;;;;;;5.80;1.13;;;12.80;89.90;;;;;;5005130;28;20080;-81
2022/10/06 03:01:30;;;;;;;2.90;0.80;;;12.80;90.00;;;;;;5007372;28;20033;-80
2022/10/06 03:03:56;;;;;;;3.33;0.65;;;12.80;90.00;;;;;;5009312;28;20358;-80
2022/10/06 03:06:27;;;;;;;6.90;0.77;;;12.70;90.10;;;;;;5010744;28;20042;-81
2022/10/06 03:08:52;;;;;;;8.57;1.00;;;12.60;90.10;;;;;;5004614;28;20038;-80
2022/10/06 03:11:19;;;;;;;3.35;0.63;;;12.70;90.10;;;;;;5009855;28;20040;-80
2022/10/06 03:13:46;;;;;;;3.95;1.33;;;12.70;89.90;;;;;;5004494;28;20034;-79
2022/10/06 03:16:15;;;;;;;5.43;1.15;;;12.70;89.90;;;;;;5011356;28;20394;-80
2022/10/06 03:18:43;;;;;;;7.70;0.80;;;12.70;89.80;;;;;;5010412;28;20034;-81
2022/10/06 03:21:09;;;;;;;4.38;0.88;;;12.60;90.10;;;;;;5011732;28;20037;-80
2022/10/06 03:23:35;;;;;;;6.85;1.02;;;12.60;90.20;;;;;;5016800;28;20022;-80
2022/10/06 03:26:00;;;;;;;3.10;0.73;;;12.60;90.40;;;;;;5003304;28;20069;-80
2022/10/06 03:28:26;;;;;;;5.90;0.98;;;12.60;90.30;;;;;;5000314;28;20038;-81
2022/10/06 03:30:53;;;;;;;4.93;0.90;;;12.60;90.50;;;;;;5006619;28;20437;-81
2022/10/06 03:33:19;;;;;;;11.10;1.02;;;12.50;90.40;;;;;;5009320;28;20125;-80
2022/10/06 03:35:44;;;;;;;9.15;1.38;;;12.50;90.80;;;;;;5013242;28;20133;-80
2022/10/06 03:38:10;;;;;;;7.97;1.10;;;12.50;90.50;;;;;;5009804;28;20447;-80
2022/10/06 03:40:35;;;;;;;4.18;1.00;;;12.60;90.40;;;;;;5011610;28;20505;-81
2022/10/06 03:43:01;;;;;;;6.88;1.15;;;12.60;90.30;;;;;;5004994;28;20109;-80
2022/10/06 03:45:26;;;;;;;4.57;0.93;;;12.50;90.40;;;;;;5006434;28;20395;-81
2022/10/06 03:47:54;;;;;;;8.60;1.40;;;12.50;90.60;;;;;;5010195;28;20108;-81
2022/10/06 03:50:19;;;;;;;7.55;1.00;;;12.40;90.70;;;;;;5007984;28;20034;-81
2022/10/06 03:52:50;;;;;;;6.43;1.05;;;12.30;90.90;;;;;;5008627;28;20040;-80
2022/10/06 03:55:15;;;;;;;7.20;0.97;;;12.40;91.00;;;;;;5000023;28;20026;-80
2022/10/06 03:57:41;;;;;;;9.07;1.08;;;12.30;91.00;;;;;;5010425;28;20053;-80
2022/10/06 04:00:07;;;;;;;6.80;0.80;;;12.30;91.10;;;;;;5003192;28;20512;-80
2022/10/06 04:02:32;;;;;;;10.48;1.15;;;12.30;91.10;;;;;;5007583;28;20034;-79
2022/10/06 04:04:58;;;;;;;6.05;1.02;;;12.30;91.10;;;;;;5003368;28;20026;-80
2022/10/06 04:07:23;;;;;;;2.45;1.00;;;12.30;90.80;;;;;;5004125;28;20027;-81
2022/10/06 04:09:49;;;;;;;5.13;1.10;;;12.30;91.10;;;;;;5018279;28;20194;-81
2022/10/06 04:12:14;;;;;;;9.43;1.27;;;12.20;91.00;;;;;;5007829;28;20050;-81
2022/10/06 04:14:40;;;;;;;7.72;1.45;;;12.20;91.10;;;;;;5008981;28;20026;-81
2022/10/06 04:17:05;;;;;;;10.77;1.20;;;12.20;91.00;;;;;;5013592;28;20467;-80
2022/10/06 04:19:30;;;;;;;8.20;1.40;;;12.30;91.10;;;;;;5005575;28;20118;-81
2022/10/06 04:21:56;;;;;;;2.75;0.70;;;12.20;90.90;;;;;;4995793;28;20451;-80
2022/10/06 04:24:21;;;;;;;5.32;1.02;;;12.20;90.90;;;;;;5000543;28;20057;-79
2022/10/06 04:26:47;;;;;;;7.00;1.13;;;12.10;90.90;;;;;;5010135;28;20582;-80
2022/10/06 04:29:13;;;;;;;8.73;1.13;;;12.10;91.00;;;;;;4999367;28;20420;-69
2022/10/06 04:31:41;;;;;;;9.25;1.20;;;12.10;90.80;;;;;;5002293;28;20061;-68
2022/10/06 04:34:08;;;;;;;4.53;0.88;;;12.10;90.70;;;;;;5000014;28;20134;-68
2022/10/06 04:36:38;;;;;;;5.43;1.02;;;12.00;90.80;;;;;;5011835;28;20108;-68
2022/10/06 04:39:04;;;;;;;10.25;1.23;;;12.00;90.80;;;;;;5003252;28;20069;-67
2022/10/06 04:41:36;;;;;;;8.82;1.23;;;12.00;90.80;;;;;;4998657;28;20034;-67
2022/10/06 04:44:02;;;;;;;6.55;1.00;;;12.00;90.90;;;;;;5019240;28;20069;-68
2022/10/06 04:46:29;;;;;;;7.82;1.50;;;12.00;90.80;;;;;;5014366;28;20109;-68
2022/10/06 04:48:55;;;;;;;9.10;1.20;;;12.00;90.70;;;;;;5007560;28;20343;-69
2022/10/06 04:51:23;;;;;;;6.88;1.70;;;11.90;91.00;;;;;;5004589;28;20060;-67
2022/10/06 04:53:49;;;;;;;6.05;1.30;;;11.90;90.90;;;;;;5005412;28;20033;-69
2022/10/06 04:56:17;;;;;;;7.05;1.30;;;11.80;91.10;;;;;;4994617;28;20041;-68
2022/10/06 04:58:45;;;;;;;9.02;1.90;;;11.80;91.00;;;;;;5005670;28;20069;-67
2022/10/06 05:01:21;;;;;;;5.85;1.23;;;11.80;90.90;;;;;;5002992;28;20053;-68
2022/10/06 05:03:48;;;;;;;7.78;1.40;;;11.80;91.10;;;;;;5003833;28;20025;-68
2022/10/06 05:06:16;;;;;;;10.07;1.65;;;11.70;91.00;;;;;;5003996;28;20041;-68
2022/10/06 05:08:43;;;;;;;8.57;1.73;;;11.70;91.00;;;;;;5010265;28;20037;-67
2022/10/06 05:11:10;;;;;;;9.05;1.63;;;11.70;90.90;;;;;;5000248;28;20053;-67
2022/10/06 05:13:37;;;;;;;7.18;1.35;;;11.70;90.70;;;;;;5007262;28;20100;-67
2022/10/06 05:16:05;;;;;;;12.18;1.75;;;11.70;90.70;;;;;;5007976;28;20034;-67
2022/10/06 05:18:31;;;;;;;9.07;1.48;;;11.60;90.90;;;;;;5001366;28;20052;-67
2022/10/06 05:21:02;;;;;;;8.70;1.48;;;11.60;90.80;;;;;;5005958;28;20041;-69
2022/10/06 05:23:28;;;;;;;;;;;11.60;90.50;;;;;;5014506;28;20426;-69
2022/10/06 05:25:55;;;;;;;9.10;1.50;;;11.60;90.30;;;;;;4995026;28;19965;-69
2022/10/06 05:28:22;;;;;;;12.23;1.55;;;11.70;90.20;;;;;;5005066;28;20034;-69
2022/10/06 05:31:08;;;;;;;11.90;1.73;;;11.60;90.00;;;;;;5008013;28;20525;-69
2022/10/06 05:33:35;;;;;;;8.10;1.20;;;11.60;90.00;;;;;;5010453;28;20417;-67
2022/10/06 05:36:04;;;;;;;7.60;1.35;;;11.60;90.00;;;;;;5006684;28;20462;-67
2022/10/06 05:38:30;;;;;;;7.10;1.52;;;11.60;89.70;;;;;;4998906;28;20045;-68
2022/10/06 05:41:23;;;;;;;10.13;1.45;;;11.60;89.90;;;;;;5000148;28;20041;-67
2022/10/06 05:43:49;;;;;;;11.43;1.60;;;11.60;89.30;;;;;;5004142;28;20038;-66
2022/10/06 05:46:22;;;;;;;10.02;1.52;;;11.50;89.50;;;;;;5004998;28;20115;-66
2022/10/06 05:48:50;;;;;;;7.13;1.40;;;11.50;89.50;;;;;;5006241;28;20061;-71
2022/10/06 05:51:18;;;;;;;11.40;1.83;;;11.50;89.50;;;;;;5003882;28;20507;-67
2022/10/06 05:53:44;;;;;;;10.50;1.40;;;11.50;89.30;;;;;;5013063;28;20030;-67
2022/10/06 05:56:19;;;;;;;8.27;1.45;;;11.50;89.30;;;;;;5011068;28;20041;-66
2022/10/06 05:58:47;;;;;;;6.70;1.45;;;11.50;89.10;;;;;;5000918;28;20462;-66
2022/10/06 06:01:16;;;;;;;6.28;1.20;;;11.40;89.20;;;;;;5013305;28;20056;-67
2022/10/06 06:03:46;;;;;;;4.15;1.00;;;11.40;89.10;;;;;;5022693;28;20466;-66
2022/10/06 06:06:16;;;;;;;15.25;1.42;;;11.50;89.00;;;;;;5011967;28;20068;-67
2022/10/06 06:08:41;;;;;;;14.80;1.75;;;11.40;89.30;;;;;;5010916;28;20056;-66
2022/10/06 06:11:07;;;;;;;11.32;1.80;;;11.40;89.10;;;;;;5010115;28;20487;-66
2022/10/06 06:13:34;;;;;;;7.90;1.45;;;11.50;88.90;;;;;;5013872;28;20036;-67
2022/10/06 06:16:02;;;;;;;10.32;1.63;;;11.40;89.10;;;;;;5005624;28;20030;-67
2022/10/06 06:18:28;;;;;;;6.88;1.20;;;11.40;89.00;;;;;;5004268;28;20042;-68
2022/10/06 06:20:59;;;;;;;9.88;1.63;;;11.50;88.90;;;;;;5009688;28;20471;-66
2022/10/06 06:23:31;;;;;;;9.13;1.80;;;11.40;88.90;;;;;;5019403;28;20053;-69
2022/10/06 06:26:23;;;;;;;6.47;1.73;;;11.40;89.00;;;;;;5014424;28;20312;-67
2022/10/06 06:28:50;;;;;;;8.63;1.98;;;11.40;89.00;;;;;;5002029;28;20375;-66
2022/10/06 06:31:20;;;;;;;13.10;1.85;;;11.50;88.90;;;;;;5009815;28;20477;-68
2022/10/06 06:33:46;;;;;;;8.38;1.33;;;11.50;88.90;;;;;;5005307;28;20048;-67
2022/10/06 06:36:24;;;;;;;8.60;1.15;;;11.50;89.00;;;;;;5002195;28;20033;-67
2022/10/06 06:38:52;;;;;;;6.13;1.30;;;11.50;89.10;;;;;;5013477;28;20042;-67
2022/10/06 06:41:21;;;;;;;10.65;1.40;;;11.50;89.00;;;;;;5010699;28;20109;-68
2022/10/06 06:43:48;;;;;;;7.65;1.27;;;11.60;88.60;;;;;;5009096;28;20049;-67
2022/10/06 06:46:16;;;;;;;6.88;1.50;;;11.60;88.50;;;;;;5014899;28;20034;-66
2022/10/06 06:48:42;;;;;;;11.93;1.48;;;11.70;88.30;;;;;;5022008;28;20026;-67
2022/10/06 06:51:10;;;;;;;11.25;1.70;;;11.70;88.20;;;;;;5008899;28;20021;-66
2022/10/06 06:53:36;;;;;;;8.50;2.20;;;11.70;88.10;;;;;;5015323;28;20423;-67
2022/10/06 06:56:02;;;;;;;6.05;1.48;;;11.80;88.10;;;;;;5004862;28;20076;-67
2022/10/06 06:58:29;;;;;;;7.18;1.40;;;11.80;88.20;;;;;;5013693;28;20057;-67
2022/10/06 07:01:02;;;;;;;12.85;1.67;;;11.70;88.40;;;;;;5016481;28;20107;-67
2022/10/06 07:03:29;;;;;;;5.95;1.50;;;11.80;88.40;;;;;;5014784;28;20496;-67
2022/10/06 07:06:08;;;;;;;7.22;1.20;;;11.90;88.10;;;;;;5010490;28;20040;-67
2022/10/06 07:08:35;;;;;;;11.13;1.55;;;11.90;88.00;;;;;;5005676;28;20025;-68
2022/10/06 07:11:10;;;;;;;8.48;1.55;;;11.90;88.10;;;;;;5008254;28;20109;-67
2022/10/06 07:13:36;;;;;;;4.32;1.08;;;12.00;88.10;;;;;;5013556;28;20022;-66
2022/10/06 07:26:58;;;;;;;9.57;1.52;;;12.30;87.20;;;;;;5006476;28;20209;-67
2022/10/06 07:29:24;;;;;;;9.55;1.55;;;12.30;86.60;;;;;;5003467;28;20196;-66
2022/10/06 07:31:49;;;;;;;6.75;1.65;;;12.40;86.10;;;;;;5007768;28;20029;-67
2022/10/06 07:34:15;;;;;;;8.75;1.58;;;12.50;86.00;;;;;;5014356;28;20505;-67
2022/10/06 07:36:40;;;;;;;7.03;1.65;;;12.50;85.80;;;;;;5012029;28;20037;-66
2022/10/06 07:39:05;;;;;;;14.55;1.50;;;12.60;85.80;;;;;;5009278;28;20042;-66
2022/10/06 07:41:31;;;;;;;11.10;1.90;;;12.60;85.80;;;;;;5005913;28;20474;-67
2022/10/06 07:43:57;;;;;;;5.55;1.25;;;12.70;85.20;;;;;;5002218;28;20056;-66
2022/10/06 07:46:23;;;;;;;6.53;1.45;;;12.80;85.10;;;;;;5024052;28;20045;-67
2022/10/06 07:48:48;;;;;;;6.85;1.35;;;12.80;84.30;;;;;;5007684;28;20447;-67
2022/10/06 07:51:17;;;;;;;8.85;1.42;;;12.90;84.00;;;;;;5013187;28;20096;-66
2022/10/06 07:53:49;;;;;;;9.77;1.60;;;13.00;84.00;;;;;;5016844;28;20114;-68
2022/10/06 07:56:16;;;;;;;5.72;1.33;;;13.00;84.00;;;;;;5009016;28;20026;-67
2022/10/06 07:58:43;;;;;;;9.73;1.45;;;13.00;84.20;;;;;;5005048;28;20426;-68
2022/10/06 08:01:11;;;;;;;8.73;1.30;;;13.20;83.50;;;;;;5008439;28;20040;-67
2022/10/06 08:03:37;;;;;;;6.40;1.40;;;13.20;83.00;;;;;;5009260;28;20030;-66
2022/10/06 08:06:03;;;;;;;10.73;1.60;;;13.30;82.70;;;;;;5020184;28;20038;-67
2022/10/06 08:08:36;;;;;;;7.90;1.35;;;13.40;82.60;;;;;;5009568;28;20037;-67
2022/10/06 08:11:04;;;;;;;9.05;1.30;;;13.50;82.10;;;;;;5018474;28;20102;-68
2022/10/06 08:13:32;;;;;;;6.68;1.48;;;13.60;81.60;;;;;;5008269;28;20180;-67
2022/10/06 08:16:09;;;;;;;9.05;2.15;;;13.70;81.70;;;;;;5007399;28;20038;-67
2022/10/06 08:18:35;;;;;;;12.23;1.50;;;13.70;81.30;;;;;;5006929;28;20089;-67
2022/10/06 08:21:15;;;;;;;7.28;1.85;;;13.80;80.60;;;;;;5019232;28;20097;-67
2022/10/06 08:23:42;;;;;;;8.80;1.50;;;13.90;80.70;;;;;;5008838;28;20425;-67
2022/10/06 08:26:12;;;;;;;10.40;1.70;;;13.90;80.30;;;;;;5007892;28;20389;-67
2022/10/06 08:28:38;;;;;;;9.90;1.67;;;13.90;79.80;;;;;;5009080;28;20033;-67
2022/10/06 08:31:06;;;;;;;7.35;1.40;;;14.00;79.80;;;;;;5007896;28;20116;-67
2022/10/06 08:33:33;;;;;;;9.18;1.75;;;14.00;79.60;;;;;;5003245;28;20079;-68
2022/10/06 08:36:04;;;;;;;6.38;1.38;;;14.00;79.40;;;;;;5009550;28;20439;-68
2022/10/06 08:38:30;;;;;;;8.63;1.75;;;14.00;79.20;;;;;;5009056;28;20104;-67
2022/10/06 08:40:56;;;;;;;7.80;1.55;;;14.00;79.70;;;;;;5007068;28;20622;-66
2022/10/06 08:43:23;;;;;;;7.68;1.83;;;14.00;79.40;;;;;;5008819;28;20457;-67
2022/10/06 08:45:57;;;;;;;6.68;1.52;;;14.20;79.40;;;;;;5007937;28;20088;-67
2022/10/06 08:48:25;;;;;;;8.38;1.15;;;14.40;78.60;;;;;;5005697;28;20044;-67
2022/10/06 08:51:14;;;;;;;7.95;1.80;;;14.40;78.10;;;;;;5009584;28;20119;-67
2022/10/06 08:53:55;;;;;;;10.65;1.55;;;14.50;77.40;;;;;;5001740;28;20041;-66
2022/10/06 08:56:26;;;;;;;;;;;14.70;77.90;;;;;;5002270;28;20038;-67
2022/10/06 08:59:03;;;;;;;11.75;1.67;;;14.70;77.50;;;;;;5009102;28;19925;-67
2022/10/06 09:01:37;;;;;;;9.57;1.48;;;14.80;77.10;;;;;;5013474;28;20067;-67
2022/10/06 09:04:06;;;;;;;11.93;1.65;;;14.80;76.20;;;;;;5016792;28;20060;-68
2022/10/06 09:06:48;;;;;;;10.82;1.45;;;14.80;76.30;;;;;;5008156;28;20033;-67
2022/10/06 09:09:26;;;;;;;10.93;1.70;;;14.80;75.60;;;;;;4998986;28;20116;-67
2022/10/06 09:12:09;;;;;;;7.78;1.50;;;14.60;75.60;;;;;;5007229;28;20044;-68
2022/10/06 09:14:41;;;;;;;6.82;1.52;;;14.80;75.40;;;;;;5008812;28;20021;-67
2022/10/06 09:17:16;;;;;;;8.15;1.42;;;14.90;75.00;;;;;;5008954;28;20048;-67
2022/10/06 09:19:44;;;;;;;13.02;1.58;;;15.00;74.50;;;;;;5002193;28;20041;-68
2022/10/06 09:22:22;;;;;;;7.78;1.50;;;15.10;73.00;;;;;;5007412;28;20089;-68
2022/10/06 09:24:50;;;;;;;8.32;1.65;;;15.10;73.00;;;;;;5000166;28;20034;-67
2022/10/06 09:27:18;;;;;;;8.80;1.48;;;15.30;73.20;;;;;;5007507;28;20022;-66
2022/10/06 09:29:47;;;;;;;10.65;1.65;;;15.50;73.60;;;;;;4999178;28;20038;-67
2022/10/06 09:32:13;;;;;;;8.50;1.33;;;15.50;72.20;;;;;;5004159;28;20033;-67
2022/10/06 09:34:44;;;;;;;9.77;1.80;;;15.60;71.80;;;;;;5020553;28;20045;-67
2022/10/06 09:37:11;;;;;;;6.03;1.90;;;15.70;72.20;;;;;;5008326;28;20033;-66
2022/10/06 09:39:40;;;;;;;9.60;1.50;;;15.30;71.90;;;;;;5003428;28;20057;-67
2022/10/06 09:42:24;;;;;;;8.40;2.35;;;15.50;72.30;;;;;;5002314;28;20117;-67
2022/10/06 09:44:50;;;;;;;9.13;1.60;;;15.70;70.40;;;;;;5003966;28;20109;-66
2022/10/06 09:47:31;;;;;;;8.90;1.77;;;15.90;70.50;;;;;;5012009;28;20054;-67
2022/10/06 09:50:23;;;;;;;7.60;1.25;;;16.00;70.90;;;;;;5014942;28;20406;-67
2022/10/06 09:52:59;;;;;;;12.07;1.75;;;15.80;70.10;;;;;;5005552;28;20045;-68
2022/10/06 09:55:28;;;;;;;8.45;1.70;;;15.80;70.20;;;;;;5005456;28;20075;-67
2022/10/06 09:57:56;;;;;;;5.18;1.25;;;16.00;70.60;;;;;;4998654;28;20504;-67
2022/10/06 10:00:33;;;;;;;7.85;1.40;;;16.20;69.90;;;;;;5004948;28;20056;-67
2022/10/06 10:03:01;;;;;;;12.55;1.38;;;16.30;69.50;;;;;;5015621;28;20121;-70
2022/10/06 10:05:30;;;;;;;6.72;1.38;;;16.10;68.90;;;;;;5008097;28;20411;-66
2022/10/06 10:08:21;;;;;;;9.68;1.80;;;16.00;68.80;;;;;;5018460;28;20034;-66
2022/10/06 10:10:48;;;;;;;10.70;1.55;;;16.20;67.60;;;;;;5007141;28;20030;-67
2022/10/06 10:13:24;;;;;;;5.80;1.02;;;16.20;68.90;;;;;;5008223;28;20091;-67
2022/10/06 10:16:00;;;;;;;10.38;1.42;;;16.30;68.70;;;;;;4995923;28;20097;-67
2022/10/06 10:18:29;;;;;;;8.43;1.20;;;16.20;68.00;;;;;;5008040;28;20125;-67
2022/10/06 10:21:04;;;;;;;9.13;1.75;;;16.00;69.80;;;;;;5016450;28;20044;-68
2022/10/06 10:23:32;;;;;;;9.35;1.55;;;15.70;70.10;;;;;;5007864;28;20323;-69
2022/10/06 10:26:16;;;;;;;10.32;1.75;;;15.70;70.70;;;;;;5006681;28;20104;-68
2022/10/06 10:29:03;;;;;;;11.02;1.60;;;15.60;69.60;;;;;;5000815;28;20060;-67
2022/10/06 10:32:06;;;;;;;10.13;1.88;;;15.80;69.60;;;;;;4998787;28;20401;-66
2022/10/06 10:35:10;;;;;;;6.32;1.73;;;15.80;69.00;;;;;;5006694;28;20030;-69
2022/10/06 10:37:58;;;;;;;14.95;1.90;;;15.50;70.20;;;;;;5011170;28;20101;-67
2022/10/06 10:40:37;;;;;;;11.15;1.40;;;15.30;70.80;;;;;;5009122;28;20041;-69
2022/10/06 10:43:26;;;;;;;6.00;1.33;;;15.50;71.10;;;;;;5021670;28;20026;-67
2022/10/06 10:46:03;;;;;;;6.57;1.40;;;16.10;68.90;;;;;;5024179;28;20029;-67
2022/10/06 10:48:38;;;;;;;8.98;1.48;;;16.50;67.70;;;;;;5014537;28;20035;-67
2022/10/06 10:51:11;;;;;;;5.97;1.38;;;17.00;66.10;;;;;;5007122;28;20515;-67
2022/10/06 10:53:43;;;;;;;11.07;1.67;;;17.00;64.30;;;;;;5015427;28;20172;-68
2022/10/06 10:56:12;;;;;;;7.68;1.27;;;17.10;64.80;;;;;;5009842;28;20106;-67
2022/10/06 10:58:42;;;;;;;9.75;2.03;;;17.10;64.80;;;;;;5014544;28;20348;-68
2022/10/06 11:01:24;;;;;;;10.35;1.23;;;17.30;64.90;;;;;;5009542;28;20117;-68
2022/10/06 11:03:55;;;;;;;10.15;1.65;;;17.70;64.10;;;;;;5021164;28;20487;-67
2022/10/06 11:06:47;;;;;;;6.00;1.23;;;17.80;64.40;;;;;;4998620;28;20188;-68
2022/10/06 11:09:42;;;;;;;8.10;1.48;;;17.50;62.60;;;;;;5006125;28;20033;-67
2022/10/06 11:12:35;;;;;;;10.32;1.75;;;16.90;64.70;;;;;;5009249;28;20040;-67
2022/10/06 11:15:13;;;;;;;10.30;1.60;;;16.40;65.80;;;;;;5006773;28;20038;-67
2022/10/06 11:17:45;;;;;;;11.52;1.75;;;16.10;66.90;;;;;;5000320;28;20429;-68
2022/10/06 11:20:46;;;;;;;5.78;1.52;;;16.70;66.30;;;;;;5010227;28;20045;-68
2022/10/06 11:23:31;;;;;;;13.88;1.77;;;16.70;65.20;;;;;;4994225;28;20149;-69
2022/10/06 11:26:23;;;;;;;7.25;1.58;;;17.00;62.50;;;;;;4999388;28;20030;-67
2022/10/06 11:29:07;;;;;;;7.32;1.88;;;17.10;61.60;;;;;;5009827;28;20369;-68
2022/10/06 11:31:34;;;;;;;6.68;1.20;;;17.20;61.20;;;;;;5014441;28;20013;-69
2022/10/06 11:34:02;;;;;;;5.00;0.98;;;17.30;61.50;;;;;;5014617;28;20113;-68
2022/10/06 11:36:43;;;;;;;8.60;1.48;;;17.00;62.20;;;;;;5009245;28;20470;-67
2022/10/06 11:39:24;;;;;;;6.57;1.15;;;17.40;60.90;;;;;;5007765;28;20131;-68
2022/10/06 11:41:55;;;;;;;;;;;17.70;59.00;;;;;;5006290;28;20034;-68
2022/10/06 11:44:33;;;;;;;;;;;18.10;58.80;;;;;;5006745;28;19921;-68
2022/10/06 11:47:13;;;;;;;8.27;1.45;;;18.20;57.40;;;;;;5005051;28;19935;-67
2022/10/06 11:49:50;;;;;;;9.85;1.15;;;18.00;57.40;;;;;;5008235;28;20107;-68
2022/10/06 11:52:16;;;;;;;10.20;1.60;;;18.00;57.80;;;;;;5001270;28;20109;-68
2022/10/06 11:55:05;;;;;;;9.15;1.65;;;18.00;58.90;;;;;;5001739;28;20112;-68
2022/10/06 11:57:31;;;;;;;6.95;1.40;;;18.00;58.00;;;;;;5001633;28;20061;-69
2022/10/06 12:00:03;;;;;;;7.90;1.27;;;18.20;58.30;;;;;;5001601;28;20046;-69
2022/10/06 12:02:31;;;;;;;5.65;1.27;;;18.60;58.10;;;;;;5003691;28;20428;-66
2022/10/06 12:05:09;;;;;;;8.10;1.42;;;17.70;59.10;;;;;;5003790;28;20441;-68
2022/10/06 12:07:53;;;;;;;6.35;1.13;;;17.70;58.70;;;;;;5001493;28;20430;-67
2022/10/06 12:10:27;;;;;;;7.47;1.35;;;17.90;59.10;;;;;;4998791;28;20434;-68
2022/10/06 12:13:02;;;;;;;6.78;1.50;;;18.30;58.10;;;;;;5001542;28;20098;-67
2022/10/06 12:16:03;;;;;;;7.25;1.02;;;18.60;57.20;;;;;;5000216;28;20057;-68
2022/10/06 12:18:53;;;;;;;8.80;1.77;;;18.80;56.20;;;;;;4991791;28;20156;-69
2022/10/06 12:21:30;;;;;;;5.85;1.20;;;18.90;55.80;;;;;;5001320;28;20113;-69
2022/10/06 12:24:25;;;;;;;6.85;1.38;;;19.10;54.70;;;;;;5000839;28;20141;-68
2022/10/06 12:27:19;;;;;;;10.13;1.15;;;18.70;54.80;;;;;;4992242;28;20041;-70
2022/10/06 12:29:51;;;;;;;6.70;1.00;;;18.50;54.70;;;;;;5001795;28;20041;-67
2022/10/06 12:32:19;;;;;;;5.90;1.30;;;18.60;53.80;;;;;;5000196;28;20419;-68
2022/10/06 12:34:59;;;;;;;6.57;1.00;;;18.70;54.20;;;;;;5002742;28;20092;-67
2022/10/06 12:37:28;;;;;;;6.25;1.13;;;19.10;53.10;;;;;;5000663;28;20425;-68
2022/10/06 12:40:31;;;;;;;6.32;1.23;;;18.90;53.30;;;;;;4998809;28;20042;-67
2022/10/06 12:43:18;;;;;;;9.63;1.30;;;18.70;53.90;;;;;;4999247;28;20042;-68
2022/10/06 12:45:55;;;;;;;8.57;1.10;;;18.20;53.70;;;;;;5008158;28;20066;-68
2022/10/06 12:48:37;;;;;;;7.53;1.50;;;18.30;54.80;;;;;;4997537;28;20038;-68
2022/10/06 12:51:17;;;;;;;9.25;1.27;;;18.50;55.20;;;;;;5005586;28;20025;-68
2022/10/06 12:54:14;;;;;;;6.75;1.35;;;17.70;56.40;;;;;;5008337;28;20045;-68
2022/10/06 12:56:41;;;;;;;9.90;1.73;;;17.70;56.50;;;;;;5007736;28;20053;-68
2022/10/06 12:59:23;;;;;;;5.82;1.35;;;18.10;56.00;;;;;;5007359;28;20041;-68
2022/10/06 13:01:51;;;;;;;6.50;1.45;;;17.90;57.30;;;;;;5011042;28;20041;-67
2022/10/06 13:04:33;;;;;;;5.00;1.10;;;18.00;55.70;;;;;;5002101;28;20386;-69
2022/10/06 13:07:01;;;;;;;7.03;1.30;;;18.70;54.90;;;;;;5005481;28;20029;-67
2022/10/06 13:09:26;;;;;;;3.97;0.75;;;18.70;51.60;;;;;;5011827;28;20112;-68
2022/10/06 13:11:52;;;;;;;6.10;0.77;;;18.60;52.80;;;;;;5002976;28;20045;-67
2022/10/06 13:14:17;;;;;;;5.75;1.10;;;18.80;51.10;;;;;;5005306;28;20397;-67